createdAt,value
2022-08-28T00:01:39.089Z,8.18
2022-08-28T00:04:41.988Z,8.63
2022-08-28T00:07:47.805Z,9.95
2022-08-28T00:10:50.805Z,9.57
2022-08-28T00:13:53.366Z,6.40
2022-08-28T00:16:59.492Z,6.90
2022-08-28T00:20:02.301Z,7.60
2022-08-28T00:23:06.461Z,7.18
2022-08-28T00:26:09.011Z,7.40
2022-08-28T00:29:11.807Z,7.95
2022-08-28T00:32:14.402Z,10.05
2022-08-28T00:35:17.877Z,5.23
2022-08-28T00:38:21.501Z,6.72
2022-08-28T00:41:24.898Z,7.60
2022-08-28T00:44:28.961Z,8.98
2022-08-28T00:47:31.858Z,8.15
2022-08-28T00:50:56.736Z,6.83
2022-08-28T00:54:07.704Z,6.62
2022-08-28T00:57:15.857Z,7.32
2022-08-28T01:00:25.135Z,6.03
2022-08-28T01:03:27.662Z,6.75
2022-08-28T01:06:30.448Z,5.60
2022-08-28T01:09:33.698Z,4.80
2022-08-28T01:12:37.032Z,7.62
2022-08-28T01:15:42.424Z,8.00
2022-08-28T01:18:46.655Z,8.95
2022-08-28T01:22:00.789Z,6.90
2022-08-28T01:25:10.553Z,9.18
2022-08-28T01:28:14.431Z,6.57
2022-08-28T01:31:18.393Z,8.88
2022-08-28T01:34:21.304Z,10.48
2022-08-28T01:37:24.149Z,8.03
2022-08-28T01:40:36.528Z,10.40
2022-08-28T01:43:40.520Z,13.07
2022-08-28T01:46:43.445Z,13.48
2022-08-28T01:49:46.338Z,15.25
2022-08-28T01:52:48.893Z,12.47
2022-08-28T01:55:53.352Z,17.55
2022-08-28T01:58:55.990Z,12.63
2022-08-28T02:01:58.924Z,14.10
2022-08-28T02:05:01.848Z,15.90
2022-08-28T02:08:05.269Z,13.93
2022-08-28T02:11:09.017Z,16.58
2022-08-28T02:14:11.530Z,13.77
2022-08-28T02:17:14.431Z,13.57
2022-08-28T02:20:17.092Z,13.62
2022-08-28T02:23:19.878Z,12.07
2022-08-28T02:26:23.537Z,11.12
2022-08-28T02:29:27.312Z,12.48
2022-08-28T02:32:30.276Z,14.15
2022-08-28T02:35:33.516Z,9.98
2022-08-28T02:38:36.961Z,10.83
2022-08-28T02:41:40.284Z,11.25
2022-08-28T02:44:42.868Z,11.80
2022-08-28T02:47:46.597Z,12.37
2022-08-28T02:50:49.036Z,12.30
2022-08-28T02:53:52.453Z,12.83
2022-08-28T02:56:55.346Z,13.55
2022-08-28T02:59:59.550Z,12.90
2022-08-28T03:03:02.069Z,12.73
2022-08-28T03:06:05.275Z,13.70
2022-08-28T03:09:07.774Z,13.83
2022-08-28T03:12:13.446Z,14.60
2022-08-28T03:15:17.220Z,15.25
2022-08-28T03:18:20.151Z,17.92
2022-08-28T03:21:22.762Z,13.93
2022-08-28T03:24:25.702Z,14.00
2022-08-28T03:27:28.204Z,13.32
2022-08-28T03:30:31.162Z,13.70
2022-08-28T03:33:34.244Z,11.98
2022-08-28T03:36:37.217Z,10.73
2022-08-28T03:39:39.787Z,12.33
2022-08-28T03:42:42.573Z,13.32
2022-08-28T03:45:58.156Z,16.12
2022-08-28T03:49:03.045Z,13.52
2022-08-28T03:52:05.885Z,13.85
2022-08-28T03:55:11.364Z,13.17
2022-08-28T03:58:18.957Z,18.60
2022-08-28T04:01:22.041Z,15.20
2022-08-28T04:04:25.029Z,12.23
2022-08-28T04:07:27.899Z,15.00
2022-08-28T04:10:32.077Z,16.63
2022-08-28T04:13:34.619Z,14.27
2022-08-28T04:16:37.442Z,15.55
2022-08-28T04:19:40.114Z,14.63
2022-08-28T04:22:43.281Z,13.30
2022-08-28T04:25:47.725Z,14.13
2022-08-28T04:28:50.662Z,15.50
2022-08-28T04:31:56.450Z,17.00
2022-08-28T04:34:59.556Z,17.30
2022-08-28T04:38:05.490Z,18.70
2022-08-28T04:41:11.105Z,17.17
2022-08-28T04:44:13.727Z,15.07
2022-08-28T04:47:16.588Z,14.85
2022-08-28T04:50:19.442Z,15.63
2022-08-28T04:53:22.240Z,16.02
2022-08-28T04:56:25.127Z,14.27
2022-08-28T04:59:29.386Z,11.93
2022-08-28T05:02:32.201Z,14.00
2022-08-28T05:05:41.437Z,15.98
2022-08-28T05:08:43.934Z,12.60
2022-08-28T05:11:47.751Z,15.17
2022-08-28T05:14:50.732Z,13.52
2022-08-28T05:17:53.556Z,14.68
2022-08-28T05:20:56.244Z,13.48
2022-08-28T05:23:59.292Z,15.80
2022-08-28T05:27:02.220Z,11.33
2022-08-28T05:30:06.088Z,13.50
2022-08-28T05:33:09.273Z,12.37
2022-08-28T05:36:12.218Z,12.18
2022-08-28T05:39:15.252Z,10.63
2022-08-28T05:42:18.249Z,11.90
2022-08-28T05:45:22.529Z,12.55
2022-08-28T05:48:27.982Z,18.17
2022-08-28T05:51:34.450Z,30.85
2022-08-28T05:54:37.265Z,19.10
2022-08-28T05:57:40.604Z,14.03
2022-08-28T06:00:43.380Z,11.43
2022-08-28T06:03:53.376Z,9.40
2022-08-28T06:06:56.044Z,8.50
2022-08-28T06:09:58.834Z,9.23
2022-08-28T06:13:02.148Z,8.37
2022-08-28T06:16:05.870Z,10.18
2022-08-28T06:19:12.081Z,7.87
2022-08-28T06:22:14.970Z,10.57
2022-08-28T06:25:17.545Z,11.02
2022-08-28T06:28:24.189Z,8.47
2022-08-28T06:31:29.734Z,7.28
2022-08-28T06:34:36.050Z,6.43
2022-08-28T06:37:38.525Z,7.65
2022-08-28T06:40:43.071Z,7.80
2022-08-28T06:43:45.671Z,6.23
2022-08-28T06:46:50.772Z,5.03
2022-08-28T06:49:54.526Z,10.63
2022-08-28T06:52:57.746Z,6.25
2022-08-28T06:56:08.877Z,8.27
2022-08-28T06:59:12.067Z,7.17
2022-08-28T07:02:14.849Z,6.05
2022-08-28T07:05:17.807Z,6.78
2022-08-28T07:08:20.363Z,5.25
2022-08-28T07:11:26.602Z,6.62
2022-08-28T07:14:29.267Z,4.57
2022-08-28T07:17:32.127Z,5.22
2022-08-28T07:20:34.645Z,5.60
2022-08-28T07:23:38.570Z,5.95
2022-08-28T07:26:41.765Z,4.55
2022-08-28T07:29:44.529Z,4.83
2022-08-28T07:32:49.962Z,5.70
2022-08-28T07:35:52.770Z,5.18
2022-08-28T07:38:56.160Z,7.28
2022-08-28T07:41:58.918Z,7.35
2022-08-28T07:45:02.236Z,5.53
2022-08-28T07:48:11.340Z,8.23
2022-08-28T07:51:14.052Z,4.82
2022-08-28T07:54:20.283Z,5.00
2022-08-28T07:57:22.919Z,5.47
2022-08-28T08:00:26.390Z,10.77
2022-08-28T08:03:31.158Z,7.28
2022-08-28T08:06:34.601Z,6.62
2022-08-28T08:09:43.318Z,5.68
2022-08-28T08:12:46.302Z,6.12
2022-08-28T08:15:49.419Z,7.50
2022-08-28T08:18:52.573Z,7.62
2022-08-28T08:21:55.956Z,8.68
2022-08-28T08:24:58.606Z,7.37
2022-08-28T08:28:03.674Z,6.03
2022-08-28T08:31:14.919Z,10.17
2022-08-28T08:34:17.697Z,7.00
2022-08-28T08:37:20.198Z,6.90
2022-08-28T08:40:23.735Z,6.53
2022-08-28T08:43:29.265Z,6.45
2022-08-28T08:46:47.256Z,7.17
2022-08-28T08:50:02.022Z,7.07
2022-08-28T08:53:26.849Z,6.60
2022-08-28T08:56:34.949Z,6.15
2022-08-28T08:59:39.972Z,6.00
2022-08-28T09:03:06.231Z,7.47
2022-08-28T09:06:16.281Z,5.80
2022-08-28T09:09:38.109Z,7.22
2022-08-28T09:13:15.342Z,6.82
2022-08-28T09:16:26.139Z,6.53
2022-08-28T09:19:29.737Z,4.47
2022-08-28T09:22:32.271Z,7.12
2022-08-28T09:25:44.390Z,7.78
2022-08-28T09:29:01.153Z,6.28
2022-08-28T09:32:33.031Z,8.27
2022-08-28T09:35:37.503Z,7.77
2022-08-28T09:38:40.278Z,7.62
2022-08-28T09:42:10.433Z,5.10
2022-08-28T09:45:18.404Z,6.78
2022-08-28T09:48:37.095Z,7.15
2022-08-28T09:51:40.113Z,5.37
2022-08-28T09:54:43.009Z,5.25
2022-08-28T09:57:49.093Z,6.90
2022-08-28T10:00:57.173Z,8.38
2022-08-28T10:04:24.595Z,7.22
2022-08-28T10:07:32.300Z,7.50
2022-08-28T10:10:46.164Z,5.00
2022-08-28T10:14:28.424Z,5.20
2022-08-28T10:18:03.488Z,6.20
2022-08-28T10:21:26.036Z,7.50
2022-08-28T10:24:34.504Z,7.27
2022-08-28T10:27:39.999Z,8.32
2022-08-28T10:30:59.485Z,6.28
2022-08-28T10:34:25.535Z,6.70
2022-08-28T10:37:31.155Z,6.07
2022-08-28T10:40:40.834Z,7.43
2022-08-28T10:43:48.934Z,8.80
2022-08-28T10:46:55.640Z,6.80
2022-08-28T10:50:03.054Z,7.78
2022-08-28T10:53:18.611Z,7.07
2022-08-28T10:56:25.602Z,5.53
2022-08-28T10:59:29.923Z,6.75
2022-08-28T11:02:33.023Z,6.53
2022-08-28T11:05:40.625Z,5.45
2022-08-28T11:08:51.674Z,4.40
2022-08-28T11:12:02.235Z,7.57
2022-08-28T11:15:29.509Z,7.03
2022-08-28T11:19:05.010Z,7.25
2022-08-28T11:22:16.227Z,6.50
2022-08-28T11:25:26.673Z,7.53
2022-08-28T11:28:35.372Z,7.33
2022-08-28T11:31:40.302Z,6.15
2022-08-28T11:35:00.475Z,6.35
2022-08-28T11:38:04.639Z,5.75
2022-08-28T11:41:26.473Z,6.95
2022-08-28T11:44:49.264Z,8.27
2022-08-28T11:47:56.428Z,8.10
2022-08-28T11:51:10.012Z,8.27
2022-08-28T11:54:21.247Z,6.75
2022-08-28T11:57:42.093Z,5.97
2022-08-28T12:00:52.996Z,7.03
2022-08-28T12:04:13.000Z,6.78
2022-08-28T12:07:17.257Z,8.18
2022-08-28T12:10:20.133Z,9.15
2022-08-28T12:13:47.533Z,6.37
2022-08-28T12:16:59.394Z,5.40
2022-08-28T12:20:10.759Z,6.03
2022-08-28T12:23:32.124Z,6.72
2022-08-28T12:26:42.215Z,6.62
2022-08-28T12:29:59.383Z,5.80
2022-08-28T12:33:37.435Z,7.50
2022-08-28T12:36:40.218Z,6.03
2022-08-28T12:39:42.783Z,7.10
2022-08-28T12:42:54.987Z,6.43
2022-08-28T12:46:02.126Z,6.25
2022-08-28T12:49:25.558Z,7.70
2022-08-28T12:52:28.125Z,7.10
2022-08-28T12:55:32.018Z,7.12
2022-08-28T12:58:37.090Z,6.47
2022-08-28T13:01:40.192Z,7.93
2022-08-28T13:04:51.999Z,5.57
2022-08-28T13:07:55.307Z,6.47
2022-08-28T13:10:59.595Z,5.53
2022-08-28T13:14:04.496Z,6.15
2022-08-28T13:17:08.245Z,6.35
2022-08-28T13:20:11.113Z,6.30
2022-08-28T13:23:28.790Z,4.80
2022-08-28T13:26:35.239Z,10.93
2022-08-28T13:29:39.415Z,6.87
2022-08-28T13:32:58.832Z,5.40
2022-08-28T13:36:19.968Z,5.73
2022-08-28T13:39:23.088Z,9.05
2022-08-28T13:42:25.604Z,6.68
2022-08-28T13:45:36.295Z,6.03
2022-08-28T13:48:46.031Z,10.10
2022-08-28T13:51:49.711Z,7.07
2022-08-28T13:54:53.445Z,8.98
2022-08-28T13:57:56.257Z,7.35
2022-08-28T14:00:59.061Z,7.87
2022-08-28T14:04:01.892Z,6.93
2022-08-28T14:07:04.514Z,6.87
2022-08-28T14:10:07.759Z,6.68
2022-08-28T14:13:10.269Z,7.07
2022-08-28T14:16:13.942Z,5.57
2022-08-28T14:19:17.042Z,5.30
2022-08-28T14:22:19.804Z,4.83
2022-08-28T14:25:22.344Z,7.70
2022-08-28T14:28:25.370Z,6.87
2022-08-28T14:31:29.526Z,5.55
2022-08-28T14:34:32.445Z,6.57
2022-08-28T14:37:35.002Z,6.17
2022-08-28T14:40:42.978Z,6.22
2022-08-28T14:43:45.566Z,5.00
2022-08-28T14:46:49.610Z,5.80
2022-08-28T14:49:52.410Z,7.30
2022-08-28T14:52:55.208Z,6.73
2022-08-28T14:55:57.679Z,8.93
2022-08-28T14:59:01.197Z,7.78
2022-08-28T15:02:03.911Z,6.62
2022-08-28T15:05:07.100Z,6.30
2022-08-28T15:08:11.638Z,6.83
2022-08-28T15:11:18.746Z,7.15
2022-08-28T15:14:21.446Z,7.53
2022-08-28T15:17:33.760Z,7.32
2022-08-28T15:20:39.515Z,6.78
2022-08-28T15:23:43.058Z,6.43
2022-08-28T15:26:46.903Z,6.35
2022-08-28T15:29:49.811Z,6.97
2022-08-28T15:32:52.765Z,7.07
2022-08-28T15:35:56.641Z,7.78
2022-08-28T15:39:17.774Z,7.97
2022-08-28T15:42:20.522Z,7.78
2022-08-28T15:45:23.069Z,6.22
2022-08-28T15:48:26.164Z,6.62
2022-08-28T15:51:28.758Z,6.18
2022-08-28T15:54:32.077Z,6.43
2022-08-28T15:57:34.590Z,6.75
2022-08-28T16:00:37.441Z,8.48
2022-08-28T16:03:40.421Z,6.35
2022-08-28T16:06:42.993Z,6.15
2022-08-28T16:09:45.775Z,5.13
2022-08-28T16:12:55.592Z,6.15
2022-08-28T16:16:00.583Z,5.70
2022-08-28T16:19:03.763Z,5.50
2022-08-28T16:22:07.658Z,7.47
2022-08-28T16:25:10.407Z,6.97
2022-08-28T16:28:13.615Z,6.22
2022-08-28T16:31:19.021Z,7.95
2022-08-28T16:34:22.369Z,6.75
2022-08-28T16:37:26.476Z,7.75
2022-08-28T16:40:44.920Z,6.10
2022-08-28T16:43:48.631Z,6.20
2022-08-28T16:46:51.567Z,6.22
2022-08-28T16:49:58.233Z,5.40
2022-08-28T16:53:06.324Z,5.37
2022-08-28T16:56:11.240Z,8.77
2022-08-28T16:59:16.630Z,7.10
2022-08-28T17:02:23.037Z,6.53
2022-08-28T17:05:26.005Z,6.28
2022-08-28T17:08:28.703Z,8.18
2022-08-28T17:11:32.056Z,8.53
2022-08-28T17:14:34.781Z,6.87
2022-08-28T17:17:37.780Z,7.82
2022-08-28T17:20:59.103Z,8.27
2022-08-28T17:24:02.005Z,7.35
2022-08-28T17:27:05.790Z,8.20
2022-08-28T17:30:09.919Z,6.90
2022-08-28T17:33:13.421Z,8.32
2022-08-28T17:36:32.435Z,6.82
2022-08-28T17:39:36.367Z,8.15
2022-08-28T17:42:39.312Z,8.43
2022-08-28T17:45:43.185Z,8.50
2022-08-28T17:48:55.718Z,7.65
2022-08-28T17:51:59.021Z,7.87
2022-08-28T17:55:02.323Z,7.57
2022-08-28T17:58:04.979Z,5.63
2022-08-28T18:01:07.835Z,6.53
2022-08-28T18:04:11.820Z,7.62
2022-08-28T18:07:14.381Z,7.82
2022-08-28T18:10:17.297Z,8.05
2022-08-28T18:13:19.832Z,5.77
2022-08-28T18:16:25.425Z,5.80
2022-08-28T18:19:30.303Z,8.27
2022-08-28T18:22:33.203Z,5.37
2022-08-28T18:25:41.682Z,6.78
2022-08-28T18:28:46.790Z,5.50
2022-08-28T18:31:49.629Z,4.18
2022-08-28T18:34:56.983Z,5.35
2022-08-28T18:38:01.681Z,6.82
2022-08-28T18:41:05.702Z,3.78
2022-08-28T18:44:08.242Z,4.47
2022-08-28T18:47:11.111Z,5.35
2022-08-28T18:50:14.228Z,4.97
2022-08-28T18:53:19.561Z,4.43
2022-08-28T18:56:22.044Z,4.30
2022-08-28T18:59:25.179Z,5.37
2022-08-28T19:02:27.808Z,5.57
2022-08-28T19:05:31.007Z,5.15
2022-08-28T19:08:36.800Z,4.43
2022-08-28T19:11:39.654Z,4.87
2022-08-28T19:14:42.387Z,3.70
2022-08-28T19:17:45.730Z,3.10
2022-08-28T19:20:48.372Z,3.75
2022-08-28T19:23:55.790Z,2.65
2022-08-28T19:26:58.836Z,3.40
2022-08-28T19:30:05.741Z,2.73
2022-08-28T19:33:08.204Z,3.35
2022-08-28T19:36:11.300Z,3.15
2022-08-28T19:39:13.804Z,3.00
2022-08-28T19:42:17.153Z,3.50
2022-08-28T19:45:20.254Z,2.90
2022-08-28T19:48:23.056Z,2.90
2022-08-28T19:51:25.548Z,3.10
2022-08-28T19:54:29.027Z,3.20
2022-08-28T19:57:31.578Z,3.40
2022-08-28T20:00:35.572Z,4.57
2022-08-28T20:03:40.248Z,3.97
2022-08-28T20:06:43.002Z,3.08
2022-08-28T20:09:45.823Z,4.70
2022-08-28T20:12:48.947Z,5.57
2022-08-28T20:15:55.158Z,3.23
2022-08-28T20:18:58.004Z,3.67
2022-08-28T20:22:00.832Z,3.58
2022-08-28T20:25:05.211Z,4.12
2022-08-28T20:28:08.058Z,3.12
2022-08-28T20:31:15.762Z,5.60
2022-08-28T20:34:19.718Z,3.15
2022-08-28T20:37:22.349Z,5.43
2022-08-28T20:40:25.527Z,5.20
2022-08-28T20:43:28.714Z,3.55
2022-08-28T20:46:37.037Z,3.63
2022-08-28T20:49:42.463Z,4.65
2022-08-28T20:52:45.654Z,4.20
2022-08-28T20:55:48.454Z,4.85
2022-08-28T20:58:51.264Z,6.28
2022-08-28T21:01:54.899Z,3.90
2022-08-28T21:04:57.998Z,6.03
2022-08-28T21:08:00.565Z,3.53
2022-08-28T21:11:03.476Z,4.82
2022-08-28T21:14:05.965Z,5.40
2022-08-28T21:17:09.091Z,5.00
2022-08-28T21:20:14.003Z,6.00
2022-08-28T21:23:16.901Z,4.60
2022-08-28T21:26:19.496Z,4.93
2022-08-28T21:29:22.903Z,3.78
2022-08-28T21:32:26.908Z,6.40
2022-08-28T21:35:29.643Z,7.05
2022-08-28T21:38:32.153Z,5.72
2022-08-28T21:41:35.010Z,6.93
2022-08-28T21:44:38.378Z,3.95
2022-08-28T21:47:42.299Z,4.83
2022-08-28T21:50:44.916Z,7.55
2022-08-28T21:53:47.707Z,4.00
2022-08-28T21:56:50.500Z,5.93
2022-08-28T22:00:01.733Z,5.43
2022-08-28T22:03:04.441Z,4.10
2022-08-28T22:06:12.253Z,7.25
2022-08-28T22:09:14.710Z,5.37
2022-08-28T22:12:17.862Z,4.78
2022-08-28T22:15:20.458Z,4.97
2022-08-28T22:18:23.232Z,7.60
2022-08-28T22:21:53.150Z,6.93
2022-08-28T22:24:56.437Z,4.35
2022-08-28T22:27:59.019Z,5.37
2022-08-28T22:31:02.480Z,7.03
2022-08-28T22:34:09.056Z,3.93
2022-08-28T22:37:12.581Z,5.90
2022-08-28T22:40:15.916Z,4.60
2022-08-28T22:43:19.445Z,7.18
2022-08-28T22:46:22.039Z,6.57
2022-08-28T22:49:25.082Z,7.33
2022-08-28T22:52:27.626Z,6.15
2022-08-28T22:55:30.475Z,6.40
2022-08-28T22:58:33.219Z,6.07
2022-08-28T23:01:36.401Z,4.32
2022-08-28T23:04:39.500Z,7.83
2022-08-28T23:07:42.803Z,4.47
2022-08-28T23:10:58.515Z,7.90
2022-08-28T23:14:01.630Z,4.35
2022-08-28T23:17:04.170Z,6.45
2022-08-28T23:20:10.085Z,4.83
2022-08-28T23:23:12.901Z,9.60
2022-08-28T23:26:17.001Z,6.18
2022-08-28T23:29:19.848Z,7.25
2022-08-28T23:32:22.645Z,4.85
2022-08-28T23:35:25.214Z,6.53
2022-08-28T23:38:28.720Z,5.47
2022-08-28T23:41:32.073Z,6.60
2022-08-28T23:44:34.960Z,6.47
2022-08-28T23:47:40.521Z,4.57
2022-08-28T23:50:43.644Z,4.40
2022-08-28T23:53:46.170Z,10.77
2022-08-28T23:56:50.419Z,6.22
2022-08-28T23:59:54.108Z,5.87
